Pagina principale
METAR-TAF:

METAR-TAF

Aeroporti :

Aeroporto di Candia-Nikos Kazantzakis

Candia, Grecia

latitudine: 35-20N, longitudine: 025-11E, altezza: 37 m

Osservazione

Il bollettino è stato emesso 31 minuti fa, alle 16:50 UTC
Vento 10 kt da ovest/nord-ovest
Temperature 29°C
Umidità 70%
Pressione 1007 hPa
Visibilità 10 km o più
nessuna nube inferiore a 1500 m e nessun cumulonembo

METAR: LGIR 191650Z 30010KT CAVOK 29/23 Q1007 NOSIG

Ora: 20:21 (17:21 UTC)

Previsione

Il bollettino è stato emesso 6 ore e 21 minuti fa, alle 11:00 UTC
Previsione valida dal 19 alle 12 UTC al 20 alle 12 UTC
Vento 18 kt da nord-ovest
Visibilità 10 km o più
nessuna nube inferiore a 1500 m e nessun cumulonembo

TAF: LGIR 191100Z 1912/2012 31018KT CAVOK

Osservazioni e previsioni meteorologiche di più di 4000 aeroporti (messaggi METAR e TAF).

Le stazioni disponibili sono rappresentate dai dischi gialli e rossi sulla carta.

Puntare il mouse per vedere il nome della stazione.

Clicca sopra per visualizzare le osservazioni e previsioni meteorologiche.

Per cambiare la mappa : fare clic sui pulsanti verdi con una croce nera per ingrandire, il pulsante verde con un trattino per diminuire, o sulla freccia verde per le mappe adiacenti.


METAR-TAF: